Time;durP1;ratioP1;P1;durP2;ratioP2;P2;SDS_P1;SDS_P2;PMS_P1;PMS_P2;Temp;Humidity;BMP_temperature;BMP_pressure;BME280_temperature;BME280_humidity;BME280_pressure;Samples;Min_cycle;Max_cycle;Signal;HPM_P1;HPM_P2
2022/03/15 00:02:09;;;;;;;;;;;;;;;-2.77;62.21;96945.88;5072702;28;1011;-48
2022/03/15 00:04:35;;;;;;;;;;;;;;;-2.83;62.81;96949.50;5072663;28;1910;-48
2022/03/15 00:07:01;;;;;;;;;;;;;;;-2.87;62.63;96944.41;5073802;28;1024;-48
2022/03/15 00:09:27;;;;;;;;;;;;;;;-2.83;62.84;96943.41;5076182;28;980;-48
2022/03/15 00:11:53;;;;;;;;;;;;;;;-2.95;63.83;96942.81;5075517;28;1096;-48
2022/03/15 00:14:20;;;;;;;;;;;;;;;-2.81;63.09;96936.38;5076094;28;1028;-48
2022/03/15 00:16:46;;;;;;;;;;;;;;;-2.66;62.94;96936.03;5075843;28;1068;-48
2022/03/15 00:19:13;;;;;;;;;;;;;;;-2.60;62.98;96933.28;5076051;28;979;-48
2022/03/15 00:21:39;;;;;;;;;;;;;;;-2.76;62.74;96931.91;5075749;28;998;-48
2022/03/15 00:24:06;;;;;;;;;;;;;;;-2.99;63.18;96930.69;5075690;28;1906;-48
2022/03/15 00:26:32;;;;;;;;;;;;;;;-3.08;63.93;96928.28;5075537;28;992;-48
2022/03/15 00:28:58;;;;;;;;;;;;;;;-3.13;63.59;96930.13;5075777;28;991;-48
2022/03/15 00:31:24;;;;;;;;;;;;;;;-3.07;63.50;96932.63;5075698;28;976;-48
2022/03/15 00:33:50;;;;;;;;;;;;;;;-2.91;63.36;96929.66;5075667;28;1225;-48
2022/03/15 00:36:16;;;;;;;;;;;;;;;-3.09;63.59;96920.47;5075583;28;996;-48
2022/03/15 00:38:43;;;;;;;;;;;;;;;-3.41;64.52;96917.66;5075443;28;1051;-48
2022/03/15 00:41:09;;;;;;;;;;;;;;;-3.29;64.51;96924.38;5075185;28;1298;-48
2022/03/15 00:43:35;;;;;;;;;;;;;;;-3.18;64.32;96918.94;5074920;28;1918;-48
2022/03/15 00:46:02;;;;;;;;;;;;;;;-2.95;63.22;96908.78;5075530;28;1120;-48
2022/03/15 00:48:28;;;;;;;;;;;;;;;-2.85;63.41;96904.19;5075387;28;1028;-48
2022/03/15 00:50:54;;;;;;;;;;;;;;;-3.05;63.65;96909.91;5075261;28;1221;-48
2022/03/15 00:53:20;;;;;;;;;;;;;;;-3.21;63.22;96903.28;5075105;28;1055;-48
2022/03/15 00:55:47;;;;;;;;;;;;;;;-3.56;64.37;96907.53;5075033;28;1075;-48
2022/03/15 00:58:13;;;;;;;;;;;;;;;-3.50;64.49;96904.78;5074965;28;1012;-48
2022/03/15 01:00:39;;;;;;;;;;;;;;;-3.62;64.85;96898.06;5075387;28;1039;-48
2022/03/15 01:03:05;;;;;;;;;;;;;;;-3.43;65.40;96901.16;5074858;28;1914;-48
2022/03/15 01:05:31;;;;;;;;;;;;;;;-3.22;64.88;96912.03;5075154;28;961;-48
2022/03/15 01:07:57;;;;;;;;;;;;;;;-3.17;63.84;96918.00;5074804;28;957;-48
2022/03/15 01:10:23;;;;;;;;;;;;;;;-3.18;63.97;96911.06;5074961;28;1045;-48
2022/03/15 01:12:49;;;;;;;;;;;;;;;-3.46;64.37;96905.59;5074669;28;1086;-48
2022/03/15 01:15:16;;;;;;;;;;;;;;;-3.60;65.01;96904.13;5074937;28;1035;-48
2022/03/15 01:17:42;;;;;;;;;;;;;;;-3.40;65.03;96908.06;5074570;28;1026;-48
2022/03/15 01:20:09;;;;;;;;;;;;;;;-3.47;65.12;96906.47;5074723;28;961;-48
2022/03/15 01:22:35;;;;;;;;;;;;;;;-3.50;65.03;96917.88;5074535;28;1918;-48
2022/03/15 01:25:01;;;;;;;;;;;;;;;-3.56;64.98;96921.47;5074481;28;964;-48
2022/03/15 01:27:27;;;;;;;;;;;;;;;-3.64;64.32;96928.63;5074338;28;1036;-48
2022/03/15 01:29:54;;;;;;;;;;;;;;;-3.83;65.17;96922.91;5074609;28;1036;-48
2022/03/15 01:32:20;;;;;;;;;;;;;;;-3.87;65.45;96922.97;5074290;28;1094;-48
2022/03/15 01:34:46;;;;;;;;;;;;;;;-3.65;64.97;96924.28;5074336;28;1024;-48
2022/03/15 01:37:12;;;;;;;;;;;;;;;-3.46;65.12;96924.75;5074276;28;1075;-48
2022/03/15 01:39:39;;;;;;;;;;;;;;;-3.29;63.96;96924.38;5074922;28;1975;-49
2022/03/15 01:42:05;;;;;;;;;;;;;;;-3.39;64.29;96934.19;5073787;28;1219;-49
2022/03/15 01:44:33;;;;;;;;;;;;;;;-3.71;65.43;96931.41;5074255;28;1909;-49
2022/03/15 01:47:00;;;;;;;;;;;;;;;-3.73;64.81;96926.19;5074099;28;1122;-49
2022/03/15 01:49:26;;;;;;;;;;;;;;;-3.95;65.57;96929.19;5074106;28;972;-49
2022/03/15 01:51:52;;;;;;;;;;;;;;;-3.97;65.71;96917.91;5073927;28;1217;-49
2022/03/15 01:54:20;;;;;;;;;;;;;;;-4.10;65.75;96919.03;5073851;28;948;-49
2022/03/15 01:56:47;;;;;;;;;;;;;;;-4.05;66.18;96903.31;5074118;28;971;-49
2022/03/15 01:59:14;;;;;;;;;;;;;;;-3.78;65.04;96909.72;5073925;28;1186;-49
2022/03/15 02:01:41;;;;;;;;;;;;;;;-3.70;65.34;96910.41;5074086;28;1063;-49
2022/03/15 02:04:07;;;;;;;;;;;;;;;-3.78;64.63;96907.97;5073490;28;1910;-49
2022/03/15 02:06:38;;;;;;;;;;;;;;;-3.86;65.90;96917.72;5073928;28;1059;-49
2022/03/15 02:09:11;;;;;;;;;;;;;;;-4.02;65.12;96906.72;5073484;28;1023;-49
2022/03/15 02:11:37;;;;;;;;;;;;;;;-4.10;66.87;96899.91;5073944;28;1016;-49
2022/03/15 02:14:04;;;;;;;;;;;;;;;-3.89;65.98;96907.31;5073332;28;1004;-49
2022/03/15 02:16:31;;;;;;;;;;;;;;;-3.82;66.49;96903.69;5073776;28;964;-49
2022/03/15 02:18:58;;;;;;;;;;;;;;;-3.86;65.86;96903.81;5073365;28;1019;-49
2022/03/15 02:21:27;;;;;;;;;;;;;;;-4.15;65.98;96902.63;5073578;28;1111;-49
2022/03/15 02:23:54;;;;;;;;;;;;;;;-3.96;66.15;96890.91;5073218;28;2008;-49
2022/03/15 02:26:20;;;;;;;;;;;;;;;-4.02;65.90;96892.78;5073502;28;1076;-49
2022/03/15 02:28:46;;;;;;;;;;;;;;;-3.91;66.53;96888.19;5072998;28;1059;-49
2022/03/15 02:31:13;;;;;;;;;;;;;;;-4.07;65.98;96878.97;5073333;28;1020;-49
2022/03/15 02:33:39;;;;;;;;;;;;;;;-4.23;66.51;96878.38;5073290;28;1059;-49
2022/03/15 02:36:05;;;;;;;;;;;;;;;-4.16;66.17;96880.84;5073298;28;1859;-49
2022/03/15 02:38:31;;;;;;;;;;;;;;;-4.33;66.66;96888.97;5073191;28;918;-49
2022/03/15 02:40:58;;;;;;;;;;;;;;;-4.17;66.70;96893.94;5073213;28;1040;-50
2022/03/15 02:43:24;;;;;;;;;;;;;;;-3.97;66.04;96904.84;5073024;28;1942;-49
2022/03/15 02:45:50;;;;;;;;;;;;;;;-4.15;66.84;96906.09;5073373;28;1036;-49
2022/03/15 02:48:16;;;;;;;;;;;;;;;-4.25;66.55;96921.94;5073242;28;1104;-49
2022/03/15 02:50:42;;;;;;;;;;;;;;;-4.33;66.98;96922.09;5073063;28;1161;-49
2022/03/15 02:53:08;;;;;;;;;;;;;;;-4.20;66.85;96927.97;5073148;28;1106;-49
2022/03/15 02:55:34;;;;;;;;;;;;;;;-4.17;66.31;96928.75;5073197;28;960;-49
2022/03/15 02:58:00;;;;;;;;;;;;;;;-4.51;66.21;96936.34;5073021;28;1036;-49
2022/03/15 03:00:30;;;;;;;;;;;;;;;-4.61;66.77;96935.63;5073174;28;984;-49
2022/03/15 03:02:56;;;;;;;;;;;;;;;-4.48;67.03;96928.44;5072987;28;1914;-49
2022/03/15 03:05:22;;;;;;;;;;;;;;;-4.46;66.82;96928.41;5072922;28;1041;-49
2022/03/15 03:07:48;;;;;;;;;;;;;;;-4.46;66.64;96923.19;5073105;28;1107;-49
2022/03/15 03:10:17;;;;;;;;;;;;;;;-4.47;67.36;96921.47;5073116;28;960;-49
2022/03/15 03:12:44;;;;;;;;;;;;;;;-4.37;67.90;96921.28;5072756;28;1020;-49
2022/03/15 03:15:12;;;;;;;;;;;;;;;-4.44;68.01;96918.81;5072872;28;1045;-49
2022/03/15 03:17:41;;;;;;;;;;;;;;;-4.48;66.90;96901.47;5073093;28;1204;-49
2022/03/15 03:20:09;;;;;;;;;;;;;;;-4.23;65.55;96908.00;5072668;28;988;-49
2022/03/15 03:22:41;;;;;;;;;;;;;;;-4.22;66.39;96903.63;5072902;28;1913;-49
2022/03/15 03:25:08;;;;;;;;;;;;;;;-4.23;68.14;96910.59;5072854;28;953;-49
2022/03/15 03:27:34;;;;;;;;;;;;;;;-4.14;65.89;96914.78;5073308;28;965;-49
2022/03/15 03:30:00;;;;;;;;;;;;;;;-4.63;67.14;96906.09;5072654;28;1074;-49
2022/03/15 03:32:27;;;;;;;;;;;;;;;-4.58;67.66;96900.78;5072854;28;974;-49
2022/03/15 03:34:54;;;;;;;;;;;;;;;-4.53;67.38;96912.00;5072837;28;1116;-49
2022/03/15 03:37:20;;;;;;;;;;;;;;;-4.48;67.14;96911.91;5073066;28;1031;-50
2022/03/15 03:39:47;;;;;;;;;;;;;;;-4.53;66.09;96907.63;5072744;28;1110;-49
2022/03/15 03:42:13;;;;;;;;;;;;;;;-5.02;67.58;96900.63;5074472;28;1089;-49
2022/03/15 03:44:42;;;;;;;;;;;;;;;-5.11;68.37;96906.81;5076387;28;1922;-49
2022/03/15 03:47:09;;;;;;;;;;;;;;;-4.96;67.73;96908.34;5076387;28;948;-50
2022/03/15 03:49:35;;;;;;;;;;;;;;;-4.88;67.85;96907.38;5076262;28;932;-50
2022/03/15 03:52:02;;;;;;;;;;;;;;;-4.72;66.84;96906.25;5076466;28;1158;-49
2022/03/15 03:54:28;;;;;;;;;;;;;;;-4.51;66.44;96912.84;5076423;28;984;-49
2022/03/15 03:56:54;;;;;;;;;;;;;;;-4.60;67.16;96918.22;5076239;28;1036;-50
2022/03/15 03:59:20;;;;;;;;;;;;;;;-4.74;67.38;96923.66;5076291;28;999;-50
2022/03/15 04:01:46;;;;;;;;;;;;;;;-4.74;67.18;96926.28;5076036;28;1101;-50
2022/03/15 04:04:12;;;;;;;;;;;;;;;-4.93;66.96;96931.78;5076361;28;1987;-50
2022/03/15 04:06:39;;;;;;;;;;;;;;;-5.09;67.93;96935.50;5075964;28;1024;-49
2022/03/15 04:09:06;;;;;;;;;;;;;;;-4.99;67.87;96931.00;5076143;28;980;-50
2022/03/15 04:11:32;;;;;;;;;;;;;;;-5.10;67.74;96937.25;5075872;28;1024;-50
2022/03/15 04:14:03;;;;;;;;;;;;;;;-5.22;68.14;96936.56;5075883;28;1218;-49
2022/03/15 04:16:30;;;;;;;;;;;;;;;-5.11;68.01;96938.13;5075773;28;980;-49
2022/03/15 04:18:56;;;;;;;;;;;;;;;-4.94;67.69;96944.84;5075833;28;1053;-49
2022/03/15 04:21:24;;;;;;;;;;;;;;;-5.06;67.96;96937.22;5075632;28;1025;-49
2022/03/15 04:23:51;;;;;;;;;;;;;;;-5.02;67.86;96949.34;5075692;28;1902;-49
2022/03/15 04:26:17;;;;;;;;;;;;;;;-4.97;67.98;96948.38;5075480;28;1107;-49
2022/03/15 04:28:43;;;;;;;;;;;;;;;-5.09;67.87;96948.53;5075789;28;1036;-50
2022/03/15 04:31:09;;;;;;;;;;;;;;;-4.94;67.50;96950.91;5075457;28;996;-49
2022/03/15 04:33:35;;;;;;;;;;;;;;;-5.05;67.28;96947.59;5075771;28;1991;-49
2022/03/15 04:36:01;;;;;;;;;;;;;;;-5.25;68.11;96940.09;5075739;28;984;-50
2022/03/15 04:38:27;;;;;;;;;;;;;;;-5.46;68.10;96950.78;5075721;28;996;-49
2022/03/15 04:40:53;;;;;;;;;;;;;;;-5.42;68.14;96939.47;5075180;28;1051;-49
2022/03/15 04:43:19;;;;;;;;;;;;;;;-5.48;69.28;96943.00;5075086;28;1132;-49
2022/03/15 04:45:45;;;;;;;;;;;;;;;-5.21;68.70;96936.53;5075153;28;1013;-49
2022/03/15 04:48:13;;;;;;;;;;;;;;;-5.02;67.56;96936.28;5075564;28;993;-50
2022/03/15 04:50:39;;;;;;;;;;;;;;;-5.08;67.87;96945.06;5075073;28;1209;-49
2022/03/15 04:53:05;;;;;;;;;;;;;;;-4.86;67.66;96942.97;5074668;28;1979;-49
2022/03/15 04:55:30;;;;;;;;;;;;;;;-4.79;67.18;96948.97;5075216;28;1036;-49
2022/03/15 04:57:57;;;;;;;;;;;;;;;-4.68;67.28;96954.88;5074926;28;1224;-49
2022/03/15 05:00:23;;;;;;;;;;;;;;;-4.81;66.97;96962.03;5075051;28;1023;-49
2022/03/15 05:02:49;;;;;;;;;;;;;;;-4.84;66.53;96969.91;5075030;28;964;-49
2022/03/15 05:05:16;;;;;;;;;;;;;;;-4.85;66.96;96960.38;5074957;28;1017;-49
2022/03/15 05:07:42;;;;;;;;;;;;;;;-5.00;67.18;96958.84;5074856;28;1036;-49
2022/03/15 05:12:53;;;;;;;;;;;;;;;-4.75;68.22;96963.69;5074303;28;1910;-50
2022/03/15 05:15:19;;;;;;;;;;;;;;;-4.47;67.69;96971.09;5074814;28;1072;-50
2022/03/15 05:17:45;;;;;;;;;;;;;;;-4.38;66.35;96971.81;5074585;28;1103;-50
2022/03/15 05:20:11;;;;;;;;;;;;;;;-4.38;66.89;96970.91;5074882;28;1015;-49
2022/03/15 05:22:37;;;;;;;;;;;;;;;-4.26;67.36;96977.72;5074562;28;1090;-50
2022/03/15 05:25:04;;;;;;;;;;;;;;;-3.87;66.48;96973.53;5074556;28;1076;-49
2022/03/15 05:27:33;;;;;;;;;;;;;;;-3.65;65.87;96979.19;5074271;28;937;-50
2022/03/15 05:30:00;;;;;;;;;;;;;;;-3.46;65.46;96984.06;5074482;28;1098;-49
2022/03/15 05:32:26;;;;;;;;;;;;;;;-3.23;65.07;96984.41;5074346;28;1039;-50
2022/03/15 05:34:52;;;;;;;;;;;;;;;-3.32;64.61;96976.75;5074258;28;1973;-50
2022/03/15 05:37:18;;;;;;;;;;;;;;;-3.17;65.11;96978.19;5074171;28;1079;-50
2022/03/15 05:39:44;;;;;;;;;;;;;;;-2.82;64.40;96976.56;5074386;28;1048;-49
2022/03/15 05:42:13;;;;;;;;;;;;;;;-2.39;64.04;96978.16;5073542;28;1868;-50
2022/03/15 05:44:39;;;;;;;;;;;;;;;-2.22;63.28;96978.63;5074490;28;977;-49
2022/03/15 05:47:06;;;;;;;;;;;;;;;-2.26;63.08;96974.34;5074163;28;1040;-49
2022/03/15 05:49:32;;;;;;;;;;;;;;;-1.80;62.76;96975.78;5074162;28;1036;-49
2022/03/15 05:51:58;;;;;;;;;;;;;;;-1.62;61.56;96976.19;5073857;28;1166;-50
2022/03/15 05:54:24;;;;;;;;;;;;;;;-1.23;61.76;96975.97;5073986;28;1914;-50
2022/03/15 05:56:50;;;;;;;;;;;;;;;-0.95;61.20;96970.72;5073619;28;1024;-50
2022/03/15 05:59:16;;;;;;;;;;;;;;;-0.67;60.18;96980.41;5074246;28;1028;-50
2022/03/15 06:01:42;;;;;;;;;;;;;;;-0.31;59.53;96985.41;5073987;28;961;-49
2022/03/15 06:04:10;;;;;;;;;;;;;;;-0.03;58.18;96985.34;5073243;28;1062;-49
2022/03/15 06:06:37;;;;;;;;;;;;;;;0.32;57.71;96984.16;5073890;28;972;-55
2022/03/15 06:09:03;;;;;;;;;;;;;;;0.72;56.33;96982.72;5074111;28;976;-49
2022/03/15 06:11:32;;;;;;;;;;;;;;;1.17;55.68;96997.72;5073652;28;1035;-49
2022/03/15 06:13:58;;;;;;;;;;;;;;;2.76;52.18;97000.91;5073181;28;1909;-49
2022/03/15 06:16:24;;;;;;;;;;;;;;;5.24;46.23;96986.97;5073700;28;1016;-50
2022/03/15 06:18:50;;;;;;;;;;;;;;;7.56;40.46;96991.09;5073600;28;1051;-49
2022/03/15 06:21:17;;;;;;;;;;;;;;;8.32;38.50;96992.38;5073622;28;1110;-48
2022/03/15 06:23:43;;;;;;;;;;;;;;;8.98;37.24;96988.78;5072218;28;1025;-48
2022/03/15 06:26:09;;;;;;;;;;;;;;;10.73;34.20;96996.63;5073394;28;978;-48
2022/03/15 06:28:36;;;;;;;;;;;;;;;12.75;30.41;96987.69;5073594;28;1136;-49
2022/03/15 06:31:02;;;;;;;;;;;;;;;13.85;28.18;96980.81;5073611;28;957;-49
2022/03/15 06:33:29;;;;;;;;;;;;;;;15.01;27.56;96998.09;5073327;28;1930;-49
2022/03/15 06:35:55;;;;;;;;;;;;;;;15.71;26.62;97002.34;5073489;28;1016;-49
2022/03/15 06:38:22;;;;;;;;;;;;;;;16.47;24.95;96996.69;5073334;28;968;-49
2022/03/15 06:40:50;;;;;;;;;;;;;;;16.84;24.25;97000.28;5073159;28;945;-49
2022/03/15 06:43:16;;;;;;;;;;;;;;;16.62;23.73;96993.44;5072866;28;1085;-49
2022/03/15 06:45:42;;;;;;;;;;;;;;;15.56;24.80;96992.03;5073507;28;961;-49
2022/03/15 06:48:08;;;;;;;;;;;;;;;15.03;26.12;97006.03;5073619;28;1105;-49
2022/03/15 06:50:35;;;;;;;;;;;;;;;16.23;24.89;97005.38;5073322;28;1194;-48
2022/03/15 06:53:02;;;;;;;;;;;;;;;16.47;24.61;96998.56;5073032;28;2020;-48
2022/03/15 06:55:28;;;;;;;;;;;;;;;16.08;25.17;96996.91;5073046;28;1000;-48
2022/03/15 06:57:55;;;;;;;;;;;;;;;14.91;25.71;96999.97;5072929;28;1103;-48
2022/03/15 07:00:21;;;;;;;;;;;;;;;13.70;27.26;97001.00;5073352;28;969;-48
2022/03/15 07:02:47;;;;;;;;;;;;;;;14.03;27.31;97001.69;5073086;28;968;-48
2022/03/15 07:05:13;;;;;;;;;;;;;;;15.39;24.64;97003.56;5073230;28;1071;-48
2022/03/15 07:07:39;;;;;;;;;;;;;;;16.65;23.76;97002.09;5072957;28;965;-48
2022/03/15 07:10:06;;;;;;;;;;;;;;;17.39;22.93;97004.59;5072852;28;1032;-48
2022/03/15 07:12:35;;;;;;;;;;;;;;;17.51;22.55;97000.59;5072839;28;1024;-48
2022/03/15 07:15:03;;;;;;;;;;;;;;;17.26;22.36;97003.16;5073252;28;996;-48
2022/03/15 07:17:30;;;;;;;;;;;;;;;17.73;22.15;96996.53;5077139;28;1094;-48
2022/03/15 07:19:57;;;;;;;;;;;;;;;16.58;22.59;96999.16;5076880;28;969;-48
2022/03/15 07:22:24;;;;;;;;;;;;;;;16.32;23.08;96996.38;5076983;28;1091;-48
2022/03/15 07:24:51;;;;;;;;;;;;;;;18.53;21.74;97004.31;5075677;28;981;-48
2022/03/15 07:27:17;;;;;;;;;;;;;;;19.65;20.89;96997.41;5076939;28;1044;-48
2022/03/15 07:29:43;;;;;;;;;;;;;;;21.22;18.97;96998.31;5076899;28;1023;-49
2022/03/15 07:32:09;;;;;;;;;;;;;;;22.36;17.94;96997.34;5076778;28;1020;-49
2022/03/15 07:34:36;;;;;;;;;;;;;;;23.57;17.52;97009.31;5076509;28;1906;-49
2022/03/15 07:37:02;;;;;;;;;;;;;;;23.49;17.50;97004.00;5076623;28;937;-49
2022/03/15 07:39:28;;;;;;;;;;;;;;;24.43;16.70;97005.44;5076412;28;1040;-49
2022/03/15 07:41:54;;;;;;;;;;;;;;;23.82;16.58;97008.88;5076164;28;1089;-49
2022/03/15 07:44:21;;;;;;;;;;;;;;;23.53;17.00;97015.38;5076493;28;1902;-48
2022/03/15 07:46:50;;;;;;;;;;;;;;;24.64;16.48;96998.19;5076392;28;1091;-48
2022/03/15 07:49:20;;;;;;;;;;;;;;;24.34;16.43;96996.59;5076446;28;1000;-48
2022/03/15 07:51:46;;;;;;;;;;;;;;;24.99;15.73;96985.25;5076248;28;1213;-49
2022/03/15 07:54:12;;;;;;;;;;;;;;;25.69;15.03;96987.63;5076393;28;1028;-49
2022/03/15 07:56:39;;;;;;;;;;;;;;;24.90;16.15;96991.97;5076307;28;1087;-49
2022/03/15 07:59:05;;;;;;;;;;;;;;;25.18;15.82;96988.22;5076061;28;1102;-49
2022/03/15 08:01:31;;;;;;;;;;;;;;;25.09;16.03;96990.31;5076227;28;1083;-49
2022/03/15 08:03:58;;;;;;;;;;;;;;;25.19;15.74;96985.25;5075865;28;1909;-49
2022/03/15 08:06:24;;;;;;;;;;;;;;;25.86;15.07;96979.81;5076037;28;1090;-48
2022/03/15 08:08:53;;;;;;;;;;;;;;;26.19;14.79;96982.50;5075780;28;1881;-49
2022/03/15 08:11:19;;;;;;;;;;;;;;;26.19;15.04;96978.91;5076496;28;1022;-49
2022/03/15 08:13:45;;;;;;;;;;;;;;;26.39;14.86;96971.47;5075752;28;995;-49
2022/03/15 08:16:11;;;;;;;;;;;;;;;27.18;14.02;96983.06;5076442;28;957;-49
2022/03/15 08:18:37;;;;;;;;;;;;;;;26.43;14.56;96977.38;5075908;28;1217;-49
2022/03/15 08:21:03;;;;;;;;;;;;;;;26.67;14.50;96982.16;5075731;28;973;-49
2022/03/15 08:23:30;;;;;;;;;;;;;;;27.24;13.98;96971.22;5075754;28;2001;-48
2022/03/15 08:25:57;;;;;;;;;;;;;;;28.02;14.07;96963.59;5076490;28;961;-49
2022/03/15 08:28:24;;;;;;;;;;;;;;;27.61;14.19;96967.78;5075223;28;1039;-49
2022/03/15 08:30:53;;;;;;;;;;;;;;;27.24;14.07;96968.47;5075453;28;1079;-49
2022/03/15 08:33:20;;;;;;;;;;;;;;;26.24;14.32;96974.47;5075774;28;1007;-49
2022/03/15 08:35:46;;;;;;;;;;;;;;;25.47;15.27;96962.34;5075510;28;957;-48
2022/03/15 08:38:12;;;;;;;;;;;;;;;24.01;16.10;96962.78;5076414;28;1132;-48
2022/03/15 08:40:38;;;;;;;;;;;;;;;22.07;17.68;96954.59;5076144;28;1052;-48
2022/03/15 08:43:04;;;;;;;;;;;;;;;19.29;19.79;96937.28;5075216;28;1902;-47
2022/03/15 08:45:30;;;;;;;;;;;;;;;17.76;22.14;96934.00;5075795;28;1044;-47
2022/03/15 08:47:57;;;;;;;;;;;;;;;16.33;23.74;96933.28;5075586;28;965;-47
2022/03/15 08:50:23;;;;;;;;;;;;;;;15.74;23.26;96926.53;5075142;28;1112;-48
2022/03/15 08:52:49;;;;;;;;;;;;;;;15.87;24.76;96913.56;5075428;28;1245;-47
2022/03/15 08:55:15;;;;;;;;;;;;;;;15.81;24.41;96917.69;5075231;28;1039;-47
2022/03/15 08:57:41;;;;;;;;;;;;;;;15.79;24.06;96916.16;5075668;28;953;-48
2022/03/15 09:00:10;;;;;;;;;;;;;;;15.70;24.58;96914.34;5075037;28;1115;-47
2022/03/15 09:02:36;;;;;;;;;;;;;;;15.90;25.14;96909.72;5075305;28;1024;-48
2022/03/15 09:05:02;;;;;;;;;;;;;;;16.71;24.17;96904.25;5075178;28;1918;-48
2022/03/15 09:07:30;;;;;;;;;;;;;;;16.43;24.68;96891.84;5075609;28;1020;-48
2022/03/15 09:09:56;;;;;;;;;;;;;;;16.34;24.47;96890.94;5074663;28;1012;-48
2022/03/15 09:12:22;;;;;;;;;;;;;;;16.25;25.61;96889.16;5074940;28;1011;-48
2022/03/15 09:14:48;;;;;;;;;;;;;;;15.75;23.80;96874.31;5074569;28;1072;-48
2022/03/15 09:17:14;;;;;;;;;;;;;;;16.05;24.88;96878.53;5074945;28;905;-48
2022/03/15 09:19:41;;;;;;;;;;;;;;;16.12;24.69;96874.19;5074600;28;972;-48
2022/03/15 09:22:07;;;;;;;;;;;;;;;15.90;25.29;96872.81;5074911;28;1003;-48
2022/03/15 09:27:55;;;;;;;;;;;;;;;15.19;26.01;96859.94;5074511;28;664;-48
2022/03/15 09:30:21;;;;;;;;;;;;;;;14.61;26.65;96851.06;5074678;28;1027;-48
2022/03/15 09:32:47;;;;;;;;;;;;;;;14.67;27.03;96856.88;5074784;28;1035;-47
2022/03/15 09:35:13;;;;;;;;;;;;;;;14.33;26.66;96850.06;5074435;28;989;-48
2022/03/15 09:37:41;;;;;;;;;;;;;;;13.98;27.59;96840.75;5074341;28;987;-47
2022/03/15 09:40:09;;;;;;;;;;;;;;;13.91;28.96;96844.97;5074195;28;1003;-48
2022/03/15 09:42:35;;;;;;;;;;;;;;;13.83;28.29;96842.16;5073938;28;1263;-47
2022/03/15 09:45:02;;;;;;;;;;;;;;;13.58;28.80;96844.38;5073954;28;1909;-47
2022/03/15 09:47:31;;;;;;;;;;;;;;;13.33;27.25;96837.66;5074467;28;952;-48
2022/03/15 09:49:58;;;;;;;;;;;;;;;13.44;28.28;96842.06;5074082;28;976;-48
2022/03/15 09:52:25;;;;;;;;;;;;;;;13.64;27.79;96832.22;5074209;28;1209;-48
2022/03/15 09:54:51;;;;;;;;;;;;;;;13.94;28.22;96830.38;5073807;28;1045;-48
2022/03/15 09:57:19;;;;;;;;;;;;;;;14.07;28.51;96830.97;5073963;28;1192;-48
2022/03/15 09:59:47;;;;;;;;;;;;;;;14.33;29.11;96823.16;5073724;28;1052;-47
2022/03/15 10:02:13;;;;;;;;;;;;;;;14.54;27.78;96822.97;5073959;28;1028;-47
2022/03/15 10:04:39;;;;;;;;;;;;;;;14.33;27.23;96811.56;5073727;28;1913;-48
2022/03/15 10:07:05;;;;;;;;;;;;;;;14.51;27.97;96811.66;5073919;28;1028;-48
2022/03/15 10:09:31;;;;;;;;;;;;;;;14.40;27.74;96799.22;5073700;28;1038;-48
2022/03/15 10:11:57;;;;;;;;;;;;;;;14.52;27.52;96803.44;5073397;28;1042;-48
2022/03/15 10:14:23;;;;;;;;;;;;;;;14.67;27.18;96797.63;5073957;28;969;-48
2022/03/15 10:16:50;;;;;;;;;;;;;;;14.80;27.42;96796.31;5073628;28;988;-48
2022/03/15 10:19:16;;;;;;;;;;;;;;;14.47;26.08;96791.41;5073865;28;1135;-49
2022/03/15 10:21:49;;;;;;;;;;;;;;;14.31;26.66;96782.09;5073605;28;1055;-49
2022/03/15 10:24:17;;;;;;;;;;;;;;;14.49;27.38;96771.41;5073503;28;1922;-49
2022/03/15 10:26:45;;;;;;;;;;;;;;;14.75;26.96;96765.44;5073315;28;941;-49
2022/03/15 10:29:13;;;;;;;;;;;;;;;14.91;25.97;96762.97;5073510;28;1020;-49
2022/03/15 10:31:40;;;;;;;;;;;;;;;14.71;25.28;96755.94;5073388;28;1040;-49
2022/03/15 10:34:07;;;;;;;;;;;;;;;14.63;24.55;96757.53;5073349;28;1095;-50
2022/03/15 10:36:38;;;;;;;;;;;;;;;14.79;26.61;96751.50;5073315;28;1051;-50
2022/03/15 10:39:05;;;;;;;;;;;;;;;14.88;26.42;96748.94;5073106;28;1003;-50
2022/03/15 10:41:41;;;;;;;;;;;;;;;15.06;25.05;96746.28;5073073;28;1097;-49
2022/03/15 10:44:14;;;;;;;;;;;;;;;15.03;25.52;96748.28;5073214;28;1989;-49
2022/03/15 10:46:40;;;;;;;;;;;;;;;15.07;25.38;96740.75;5073200;28;1189;-49
2022/03/15 10:49:06;;;;;;;;;;;;;;;14.82;24.13;96735.06;5073212;28;1033;-50
2022/03/15 10:51:32;;;;;;;;;;;;;;;14.50;24.20;96732.75;5072612;28;1154;-50
2022/03/15 10:54:03;;;;;;;;;;;;;;;14.74;24.54;96726.91;5073337;28;1093;-50
2022/03/15 10:56:29;;;;;;;;;;;;;;;15.01;23.66;96723.34;5073283;28;1055;-50
2022/03/15 10:58:59;;;;;;;;;;;;;;;15.02;24.87;96724.19;5073239;28;968;-50
2022/03/15 11:01:26;;;;;;;;;;;;;;;15.17;24.64;96711.91;5073023;28;1033;-49
2022/03/15 11:03:57;;;;;;;;;;;;;;;15.25;24.68;96708.44;5073046;28;1910;-50
2022/03/15 11:06:38;;;;;;;;;;;;;;;15.46;24.84;96708.19;5072907;28;1043;-50
2022/03/15 11:09:18;;;;;;;;;;;;;;;15.33;22.45;96694.22;5073031;28;1052;-50
2022/03/15 11:11:46;;;;;;;;;;;;;;;15.13;23.96;96686.25;5072847;28;1059;-50
2022/03/15 11:14:13;;;;;;;;;;;;;;;15.31;23.69;96691.69;5073105;28;1060;-50
2022/03/15 11:16:40;;;;;;;;;;;;;;;15.38;21.66;96689.22;5072823;28;1035;-49
2022/03/15 11:19:07;;;;;;;;;;;;;;;14.92;21.29;96686.53;5072920;28;1040;-49
2022/03/15 11:21:33;;;;;;;;;;;;;;;15.05;23.16;96682.66;5073027;28;995;-49
2022/03/15 11:24:01;;;;;;;;;;;;;;;15.01;22.22;96672.16;5073103;28;1910;-50
2022/03/15 11:26:29;;;;;;;;;;;;;;;15.07;22.70;96667.19;5072938;28;1033;-50
2022/03/15 11:28:56;;;;;;;;;;;;;;;15.09;23.34;96665.19;5072797;28;1039;-50
2022/03/15 11:31:23;;;;;;;;;;;;;;;14.84;21.93;96659.53;5072788;28;1029;-50
2022/03/15 11:33:50;;;;;;;;;;;;;;;14.77;22.39;96645.78;5071872;28;1125;-50
2022/03/15 11:36:17;;;;;;;;;;;;;;;14.59;22.44;96644.94;5072709;28;1107;-50
2022/03/15 11:38:43;;;;;;;;;;;;;;;14.68;22.09;96635.94;5073032;28;1040;-48
2022/03/15 11:41:10;;;;;;;;;;;;;;;14.74;23.04;96629.09;5072517;28;1100;-49
2022/03/15 11:43:40;;;;;;;;;;;;;;;14.65;21.89;96628.16;5072527;28;1996;-49
2022/03/15 11:46:14;;;;;;;;;;;;;;;14.52;22.82;96616.88;5072593;28;1077;-49
2022/03/15 11:48:46;;;;;;;;;;;;;;;14.66;23.60;96616.38;5071696;28;1047;-49
2022/03/15 11:51:15;;;;;;;;;;;;;;;14.83;23.32;96614.72;5072704;28;1193;-49
2022/03/15 11:54:08;;;;;;;;;;;;;;;14.84;23.14;96608.34;5072637;28;999;-50
2022/03/15 11:56:34;;;;;;;;;;;;;;;14.75;23.06;96602.03;5064251;28;1161;-50
2022/03/15 11:59:00;;;;;;;;;;;;;;;14.73;22.59;96595.09;5072675;28;984;-50
2022/03/15 12:01:28;;;;;;;;;;;;;;;14.80;23.34;96591.66;5072855;28;1039;-50
2022/03/15 12:03:56;;;;;;;;;;;;;;;14.71;22.28;96583.66;5075228;28;1913;-50
2022/03/15 12:06:30;;;;;;;;;;;;;;;14.81;23.47;96576.34;5076104;28;1072;-50
2022/03/15 12:08:57;;;;;;;;;;;;;;;14.80;23.49;96577.34;5075782;28;1031;-50
2022/03/15 12:11:27;;;;;;;;;;;;;;;14.84;22.24;96559.88;5076345;28;960;-50
2022/03/15 12:14:00;;;;;;;;;;;;;;;14.87;23.59;96562.25;5075887;28;1004;-50
2022/03/15 12:16:33;;;;;;;;;;;;;;;14.70;21.98;96553.19;5076260;28;953;-50
2022/03/15 12:19:06;;;;;;;;;;;;;;;14.66;22.82;96554.47;5075766;28;1107;-50
2022/03/15 12:21:48;;;;;;;;;;;;;;;14.81;23.96;96547.56;5075823;28;1047;-50
2022/03/15 12:24:19;;;;;;;;;;;;;;;14.80;23.65;96548.56;5075621;28;1909;-50
2022/03/15 12:26:58;;;;;;;;;;;;;;;14.76;23.15;96546.31;5075766;28;1008;-50
2022/03/15 12:29:26;;;;;;;;;;;;;;;14.85;24.37;96540.03;5075892;28;1059;-50
2022/03/15 12:31:53;;;;;;;;;;;;;;;14.84;23.79;96538.34;5075599;28;1091;-50
2022/03/15 12:34:20;;;;;;;;;;;;;;;14.90;22.30;96532.34;5074584;28;1033;-50
2022/03/15 12:36:52;;;;;;;;;;;;;;;14.89;23.90;96529.78;5075508;28;1028;-49
2022/03/15 12:39:19;;;;;;;;;;;;;;;14.95;23.59;96531.84;5075602;28;1019;-49
2022/03/15 12:41:46;;;;;;;;;;;;;;;14.90;23.39;96523.41;5075130;28;1096;-50
2022/03/15 12:44:12;;;;;;;;;;;;;;;14.86;23.90;96522.03;5075329;28;2005;-49
2022/03/15 12:46:39;;;;;;;;;;;;;;;14.93;23.56;96529.34;5075395;28;1023;-49
2022/03/15 12:49:07;;;;;;;;;;;;;;;14.97;23.82;96529.88;5075216;28;1043;-50
2022/03/15 12:51:41;;;;;;;;;;;;;;;14.83;22.25;96531.25;5075432;28;1209;-50
2022/03/15 12:54:10;;;;;;;;;;;;;;;14.78;23.70;96528.19;5075132;28;1091;-50
2022/03/15 12:56:44;;;;;;;;;;;;;;;14.74;22.32;96514.19;5075362;28;968;-49
2022/03/15 12:59:17;;;;;;;;;;;;;;;14.57;22.55;96515.88;5075013;28;1122;-49
2022/03/15 13:01:47;;;;;;;;;;;;;;;14.46;22.27;96513.38;5075215;28;1025;-49
2022/03/15 13:04:14;;;;;;;;;;;;;;;14.45;22.76;96508.97;5075058;28;1910;-49
2022/03/15 13:06:41;;;;;;;;;;;;;;;14.54;23.44;96510.75;5075230;28;1032;-50